createdAt,value
2023-03-31T00:00:01.240Z,95.84
2023-03-31T00:03:10.374Z,95.98
2023-03-31T00:06:18.962Z,96.49
2023-03-31T00:09:22.728Z,96.55
2023-03-31T00:12:26.044Z,96.64
2023-03-31T00:15:29.289Z,97.45
2023-03-31T00:18:32.870Z,97.66
2023-03-31T00:21:37.128Z,97.34
2023-03-31T00:24:40.264Z,97.10
2023-03-31T00:27:44.532Z,96.71
2023-03-31T00:30:47.693Z,96.62
2023-03-31T00:33:51.137Z,96.27
2023-03-31T00:36:56.822Z,96.04
2023-03-31T00:39:59.977Z,96.79
2023-03-31T00:43:03.494Z,96.51
2023-03-31T00:46:13.947Z,95.99
2023-03-31T00:49:24.224Z,96.46
2023-03-31T00:52:37.715Z,96.67
2023-03-31T00:55:44.978Z,96.70
2023-03-31T00:58:50.083Z,96.38
2023-03-31T01:01:54.446Z,94.68
2023-03-31T01:05:02.461Z,94.89
2023-03-31T01:08:06.357Z,94.94
2023-03-31T01:11:13.210Z,96.70
2023-03-31T01:14:16.838Z,96.15
2023-03-31T01:17:22.612Z,96.39
2023-03-31T01:20:38.783Z,96.46
2023-03-31T01:23:44.050Z,98.75
2023-03-31T01:27:02.342Z,98.72
2023-03-31T01:30:26.751Z,98.32
2023-03-31T01:33:51.712Z,99.56
2023-03-31T01:37:31.614Z,100.00
2023-03-31T01:41:06.708Z,100.00
2023-03-31T01:44:32.682Z,100.00
2023-03-31T01:47:51.453Z,100.00
2023-03-31T01:51:01.792Z,100.00
2023-03-31T01:54:07.852Z,99.41
2023-03-31T01:57:22.788Z,100.00
2023-03-31T02:00:33.521Z,99.94
2023-03-31T02:03:54.928Z,99.36
2023-03-31T02:07:12.356Z,99.16
2023-03-31T02:10:17.058Z,98.13
2023-03-31T02:13:23.280Z,98.38
2023-03-31T02:16:30.587Z,98.12
2023-03-31T02:19:37.608Z,98.31
2023-03-31T02:22:44.022Z,97.76
2023-03-31T02:25:53.367Z,97.91
2023-03-31T02:28:56.631Z,98.35
2023-03-31T02:32:02.518Z,96.69
2023-03-31T02:35:08.264Z,98.77
2023-03-31T02:38:11.953Z,100.00
2023-03-31T02:41:15.054Z,99.17
2023-03-31T02:44:18.613Z,99.15
2023-03-31T02:47:22.551Z,99.19
2023-03-31T02:50:35.242Z,99.46
2023-03-31T02:54:08.856Z,100.00
2023-03-31T02:57:24.424Z,99.88
2023-03-31T03:00:36.836Z,99.47
2023-03-31T03:03:59.291Z,98.88
2023-03-31T03:07:24.085Z,99.09
2023-03-31T03:10:54.503Z,98.12
2023-03-31T03:14:03.392Z,98.16
2023-03-31T03:17:17.756Z,98.60
2023-03-31T03:20:22.310Z,98.63
2023-03-31T03:23:25.126Z,98.58
2023-03-31T03:26:28.774Z,100.00
2023-03-31T03:29:31.692Z,100.00
2023-03-31T03:32:35.248Z,100.00
2023-03-31T03:35:38.044Z,100.00
2023-03-31T03:38:41.260Z,100.00
2023-03-31T03:41:44.002Z,100.00
2023-03-31T03:44:47.467Z,99.81
2023-03-31T03:47:50.252Z,98.57
2023-03-31T03:50:54.526Z,100.00
2023-03-31T03:53:57.187Z,100.00
2023-03-31T03:57:00.658Z,100.00
2023-03-31T04:00:08.382Z,100.00
2023-03-31T04:03:14.141Z,100.00
2023-03-31T04:06:17.209Z,100.00
2023-03-31T04:09:19.955Z,99.88
2023-03-31T04:12:23.169Z,99.36
2023-03-31T04:15:26.060Z,98.90
2023-03-31T04:18:29.148Z,99.97
2023-03-31T04:21:35.201Z,100.00
2023-03-31T04:24:38.996Z,100.00
2023-03-31T04:27:55.636Z,100.00
2023-03-31T04:30:59.105Z,100.00
2023-03-31T04:34:06.820Z,100.00
2023-03-31T04:37:10.847Z,100.00
2023-03-31T04:40:13.806Z,100.00
2023-03-31T04:43:18.324Z,100.00
2023-03-31T04:46:21.347Z,100.00
2023-03-31T04:49:24.523Z,100.00
2023-03-31T04:52:27.299Z,100.00
2023-03-31T04:55:30.452Z,100.00
2023-03-31T04:58:33.786Z,100.00
2023-03-31T05:01:37.486Z,100.00
2023-03-31T05:04:40.537Z,100.00
2023-03-31T05:07:43.874Z,100.00
2023-03-31T05:10:46.605Z,100.00
2023-03-31T05:13:49.716Z,99.56
2023-03-31T05:16:52.503Z,97.80
2023-03-31T05:19:55.724Z,96.08
2023-03-31T05:22:58.526Z,92.81
2023-03-31T05:26:01.670Z,92.24
2023-03-31T05:29:04.284Z,91.41
2023-03-31T05:32:07.467Z,89.37
2023-03-31T05:35:11.618Z,88.48
2023-03-31T05:38:14.692Z,89.99
2023-03-31T05:41:17.419Z,91.51
2023-03-31T05:44:21.020Z,91.40
2023-03-31T05:47:23.814Z,92.07
2023-03-31T05:50:27.369Z,91.73
2023-03-31T05:53:30.439Z,91.70
2023-03-31T05:56:33.748Z,92.53
2023-03-31T05:59:36.508Z,91.77
2023-03-31T06:02:41.301Z,92.05
2023-03-31T06:05:49.391Z,91.36
2023-03-31T06:08:52.377Z,89.69
2023-03-31T06:11:55.600Z,88.39
2023-03-31T06:14:58.355Z,89.23
2023-03-31T06:18:01.601Z,89.77
2023-03-31T06:21:05.677Z,86.16
2023-03-31T06:24:12.081Z,87.40
2023-03-31T06:27:14.845Z,86.79
2023-03-31T06:30:18.152Z,86.86
2023-03-31T06:33:20.924Z,85.38
2023-03-31T06:36:24.034Z,82.05
2023-03-31T06:39:28.184Z,82.88
2023-03-31T06:42:31.504Z,81.92
2023-03-31T06:45:34.226Z,81.20
2023-03-31T06:48:37.592Z,78.49
2023-03-31T06:51:40.562Z,79.87
2023-03-31T06:54:43.776Z,80.36
2023-03-31T06:57:46.602Z,78.82
2023-03-31T07:00:50.186Z,78.80
2023-03-31T07:03:53.028Z,78.10
2023-03-31T07:06:58.146Z,75.29
2023-03-31T07:10:00.918Z,74.80
2023-03-31T07:13:05.588Z,73.60
2023-03-31T07:16:10.159Z,72.29
2023-03-31T07:19:13.829Z,70.87
2023-03-31T07:22:16.536Z,70.18
2023-03-31T07:25:19.869Z,70.96
2023-03-31T07:28:22.640Z,69.77
2023-03-31T07:31:26.662Z,70.79
2023-03-31T07:34:29.537Z,68.78
2023-03-31T07:37:37.264Z,68.74
2023-03-31T07:40:41.078Z,68.08
2023-03-31T07:43:45.167Z,67.07
2023-03-31T07:46:47.903Z,66.95
2023-03-31T07:49:51.343Z,67.63
2023-03-31T07:52:54.502Z,67.79
2023-03-31T07:55:57.515Z,67.16
2023-03-31T07:59:00.478Z,65.01
2023-03-31T08:02:03.557Z,63.48
2023-03-31T08:05:07.993Z,62.06
2023-03-31T08:08:10.838Z,59.48
2023-03-31T08:11:14.242Z,58.61
2023-03-31T08:14:21.922Z,58.10
2023-03-31T08:17:30.391Z,57.71
2023-03-31T08:20:33.426Z,55.32
2023-03-31T08:23:37.301Z,57.07
2023-03-31T08:26:41.678Z,57.35
2023-03-31T08:29:44.770Z,53.12
2023-03-31T08:32:47.643Z,54.65
2023-03-31T08:35:50.764Z,53.24
2023-03-31T08:38:54.428Z,51.09
2023-03-31T08:42:16.482Z,50.47
2023-03-31T08:45:27.800Z,49.35
2023-03-31T08:48:34.735Z,47.82
2023-03-31T08:51:42.201Z,47.53
2023-03-31T08:54:49.615Z,47.39
2023-03-31T08:58:23.843Z,45.61
2023-03-31T09:01:55.250Z,44.71
2023-03-31T09:05:08.125Z,45.65
2023-03-31T09:08:35.944Z,44.45
2023-03-31T09:12:08.112Z,43.19
2023-03-31T09:15:16.462Z,44.42
2023-03-31T09:18:36.029Z,43.66
2023-03-31T09:21:46.188Z,41.51
2023-03-31T09:25:08.230Z,41.70
2023-03-31T09:28:20.697Z,43.00
2023-03-31T09:31:25.637Z,40.34
2023-03-31T09:34:35.014Z,41.45
2023-03-31T09:37:37.777Z,41.46
2023-03-31T09:40:41.564Z,40.92
2023-03-31T09:43:46.449Z,40.41
2023-03-31T09:46:52.052Z,38.35
2023-03-31T09:49:54.884Z,39.63
2023-03-31T09:53:00.950Z,41.37
2023-03-31T09:56:08.801Z,41.64
2023-03-31T09:59:20.956Z,42.66
2023-03-31T10:02:27.012Z,42.79
2023-03-31T10:05:59.442Z,42.83
2023-03-31T10:09:05.467Z,43.69
2023-03-31T10:12:16.522Z,44.84
2023-03-31T10:15:22.794Z,45.09
2023-03-31T10:18:34.460Z,43.88
2023-03-31T10:21:38.928Z,43.97
2023-03-31T10:24:44.974Z,44.09
2023-03-31T10:27:52.773Z,45.61
2023-03-31T10:31:01.695Z,46.62
2023-03-31T10:34:17.364Z,47.45
2023-03-31T10:37:25.032Z,47.11
2023-03-31T10:40:30.767Z,46.86
2023-03-31T10:43:54.285Z,46.46
2023-03-31T10:47:15.755Z,46.91
2023-03-31T10:50:18.818Z,46.81
2023-03-31T10:53:22.299Z,46.80
2023-03-31T10:56:26.390Z,46.98
2023-03-31T10:59:58.838Z,46.33
2023-03-31T11:03:21.124Z,46.30
2023-03-31T11:06:38.225Z,45.24
2023-03-31T11:09:43.833Z,43.19
2023-03-31T11:13:15.298Z,43.26
2023-03-31T11:16:30.713Z,42.11
2023-03-31T11:19:40.781Z,41.82
2023-03-31T11:23:16.352Z,40.94
2023-03-31T11:26:34.405Z,41.70
2023-03-31T11:29:40.520Z,41.12
2023-03-31T11:32:56.522Z,42.62
2023-03-31T11:36:05.632Z,42.24
2023-03-31T11:39:42.048Z,44.99
2023-03-31T11:42:54.256Z,45.58
2023-03-31T11:46:44.269Z,45.29
2023-03-31T11:49:57.185Z,43.51
2023-03-31T11:53:28.726Z,42.13
2023-03-31T11:56:38.466Z,43.08
2023-03-31T11:59:44.218Z,44.02
2023-03-31T12:02:47.341Z,42.48
2023-03-31T12:05:56.752Z,42.46
2023-03-31T12:09:16.304Z,43.37
2023-03-31T12:12:24.767Z,44.60
2023-03-31T12:15:48.526Z,45.21
2023-03-31T12:19:07.300Z,45.64
2023-03-31T12:22:34.661Z,45.94
2023-03-31T12:26:18.542Z,46.29
2023-03-31T12:29:35.493Z,47.50
2023-03-31T12:32:46.199Z,48.25
2023-03-31T12:36:10.815Z,48.39
2023-03-31T12:39:24.226Z,48.68
2023-03-31T12:43:09.598Z,49.44
2023-03-31T12:46:36.963Z,48.47
2023-03-31T12:49:50.426Z,47.40
2023-03-31T12:52:59.361Z,47.46
2023-03-31T12:56:02.269Z,47.69
2023-03-31T12:59:26.083Z,48.16
2023-03-31T13:02:28.965Z,48.07
2023-03-31T13:05:38.056Z,47.82
2023-03-31T13:09:00.856Z,47.33
2023-03-31T13:12:09.547Z,47.57
2023-03-31T13:15:15.651Z,48.76
2023-03-31T13:18:23.416Z,48.94
2023-03-31T13:21:26.773Z,48.19
2023-03-31T13:24:31.525Z,47.98
2023-03-31T13:27:34.685Z,48.24
2023-03-31T13:30:41.855Z,47.96
2023-03-31T13:34:02.604Z,47.80
2023-03-31T13:37:11.960Z,47.90
2023-03-31T13:40:34.066Z,48.20
2023-03-31T13:43:37.346Z,48.41
2023-03-31T13:46:57.894Z,48.40
2023-03-31T13:50:19.478Z,48.70
2023-03-31T13:53:40.733Z,49.01
2023-03-31T13:57:20.592Z,49.36
2023-03-31T14:00:43.106Z,49.23
2023-03-31T14:04:19.199Z,48.34
2023-03-31T14:07:39.109Z,47.94
2023-03-31T14:10:43.951Z,47.40
2023-03-31T14:14:19.392Z,46.50
2023-03-31T14:17:30.150Z,46.95
2023-03-31T14:20:42.238Z,47.11
2023-03-31T14:24:16.604Z,48.15
2023-03-31T14:27:41.577Z,48.63
2023-03-31T14:31:02.997Z,48.90
2023-03-31T14:34:12.458Z,49.86
2023-03-31T14:37:21.323Z,50.41
2023-03-31T14:40:25.122Z,50.50
2023-03-31T14:43:33.944Z,51.45
2023-03-31T14:46:40.532Z,51.62
2023-03-31T14:49:44.135Z,51.95
2023-03-31T14:52:56.792Z,52.19
2023-03-31T14:56:09.615Z,52.47
2023-03-31T14:59:19.510Z,52.47
2023-03-31T15:02:35.509Z,52.52
2023-03-31T15:05:40.183Z,52.55
2023-03-31T15:08:44.685Z,52.70
2023-03-31T15:11:54.747Z,52.45
2023-03-31T15:15:06.517Z,52.72
2023-03-31T15:18:13.918Z,53.09
2023-03-31T15:21:27.873Z,52.13
2023-03-31T15:24:31.547Z,52.14
2023-03-31T15:27:48.763Z,52.22
2023-03-31T15:30:59.904Z,52.46
2023-03-31T15:34:25.710Z,52.17
2023-03-31T15:37:38.995Z,51.64
2023-03-31T15:40:44.311Z,51.69
2023-03-31T15:44:07.361Z,51.54
2023-03-31T15:47:16.265Z,51.56
2023-03-31T15:50:22.791Z,51.55
2023-03-31T15:53:31.046Z,51.47
2023-03-31T15:56:45.525Z,51.89
2023-03-31T15:59:55.893Z,52.54
2023-03-31T16:03:02.382Z,52.88
2023-03-31T16:06:23.450Z,53.44
2023-03-31T16:09:40.476Z,54.09
2023-03-31T16:12:52.738Z,54.39
2023-03-31T16:15:56.772Z,54.81
2023-03-31T16:19:14.881Z,55.09
2023-03-31T16:22:23.364Z,55.54
2023-03-31T16:25:30.310Z,56.26
2023-03-31T16:28:36.338Z,56.68
2023-03-31T16:31:41.227Z,57.00
2023-03-31T16:34:57.190Z,57.62
2023-03-31T16:38:04.141Z,58.11
2023-03-31T16:41:07.725Z,58.47
2023-03-31T16:44:11.848Z,58.73
2023-03-31T16:47:27.760Z,59.21
2023-03-31T16:50:39.063Z,59.67
2023-03-31T16:53:42.215Z,59.92
2023-03-31T16:56:46.130Z,60.31
2023-03-31T16:59:50.153Z,60.79
2023-03-31T17:02:53.591Z,61.58
2023-03-31T17:05:59.285Z,61.65
2023-03-31T17:09:02.969Z,62.29
2023-03-31T17:12:06.223Z,62.30
2023-03-31T17:15:11.137Z,62.16
2023-03-31T17:18:14.688Z,62.40
2023-03-31T17:21:19.484Z,62.33
2023-03-31T17:24:22.575Z,62.09
2023-03-31T17:27:27.585Z,61.90
2023-03-31T17:30:33.091Z,61.99
2023-03-31T17:33:37.060Z,62.13
2023-03-31T17:36:43.621Z,62.17
2023-03-31T17:39:47.313Z,62.24
2023-03-31T17:42:51.259Z,62.56
2023-03-31T17:46:05.500Z,62.80
2023-03-31T17:49:08.764Z,62.92
2023-03-31T17:52:13.920Z,62.88
2023-03-31T17:55:17.564Z,63.01
2023-03-31T17:58:23.125Z,63.50
2023-03-31T18:01:26.471Z,67.07
2023-03-31T18:04:29.873Z,70.37
2023-03-31T18:07:33.632Z,73.57
2023-03-31T18:10:39.788Z,75.54
2023-03-31T18:13:45.237Z,77.28
2023-03-31T18:16:51.955Z,80.01
2023-03-31T18:19:55.897Z,79.65
2023-03-31T18:23:00.697Z,77.94
2023-03-31T18:26:10.660Z,78.04
2023-03-31T18:29:13.990Z,78.39
2023-03-31T18:32:17.826Z,78.50
2023-03-31T18:35:25.174Z,78.76
2023-03-31T18:38:29.408Z,77.50
2023-03-31T18:41:34.092Z,76.49
2023-03-31T18:44:39.376Z,76.47
2023-03-31T18:47:44.180Z,75.07
2023-03-31T18:50:49.120Z,74.65
2023-03-31T18:53:52.904Z,76.12
2023-03-31T18:57:06.200Z,76.89
2023-03-31T19:00:11.866Z,78.09
2023-03-31T19:03:19.213Z,79.42
2023-03-31T19:06:24.268Z,81.30
2023-03-31T19:09:29.413Z,84.34
2023-03-31T19:12:35.335Z,86.98
2023-03-31T19:15:39.212Z,88.37
2023-03-31T19:18:43.949Z,88.31
2023-03-31T19:21:49.207Z,89.04
2023-03-31T19:24:53.558Z,89.88
2023-03-31T19:27:57.205Z,89.36
2023-03-31T19:31:05.379Z,89.80
2023-03-31T19:34:14.526Z,89.66
2023-03-31T19:37:19.596Z,92.79
2023-03-31T19:40:23.395Z,94.65
2023-03-31T19:43:29.548Z,95.74
2023-03-31T19:46:37.141Z,95.28
2023-03-31T19:49:42.993Z,94.79
2023-03-31T19:52:49.863Z,96.84
2023-03-31T19:55:58.336Z,97.05
2023-03-31T19:59:02.379Z,97.42
2023-03-31T20:02:07.365Z,98.06
2023-03-31T20:05:16.197Z,97.60
2023-03-31T20:08:20.356Z,98.21
2023-03-31T20:11:26.757Z,97.93
2023-03-31T20:14:31.222Z,95.82
2023-03-31T20:17:36.794Z,95.03
2023-03-31T20:20:41.471Z,94.02
2023-03-31T20:23:47.340Z,93.94
2023-03-31T20:26:52.367Z,93.92
2023-03-31T20:29:58.574Z,93.73
2023-03-31T20:33:02.854Z,93.29
2023-03-31T20:36:14.003Z,93.09
2023-03-31T20:39:18.920Z,93.42
2023-03-31T20:42:23.718Z,94.28
2023-03-31T20:45:27.657Z,94.45
2023-03-31T20:48:32.663Z,95.17
2023-03-31T20:51:37.731Z,95.14
2023-03-31T20:54:41.181Z,95.12
2023-03-31T20:57:44.240Z,95.06
2023-03-31T21:00:48.548Z,94.96
2023-03-31T21:03:52.117Z,94.96
2023-03-31T21:06:55.524Z,95.47
2023-03-31T21:09:58.698Z,95.47
2023-03-31T21:13:01.676Z,95.44
2023-03-31T21:16:05.471Z,95.35
2023-03-31T21:19:08.950Z,95.21
2023-03-31T21:22:11.639Z,95.57
2023-03-31T21:25:14.820Z,95.62
2023-03-31T21:28:20.618Z,95.50
2023-03-31T21:31:25.511Z,95.44
2023-03-31T21:34:28.338Z,96.80
2023-03-31T21:37:31.392Z,97.92
2023-03-31T21:40:35.833Z,96.41
2023-03-31T21:43:39.018Z,97.91
2023-03-31T21:46:42.246Z,97.54
2023-03-31T21:49:45.400Z,95.67
2023-03-31T21:52:48.170Z,95.81
2023-03-31T21:55:52.841Z,95.75
2023-03-31T21:58:55.871Z,94.76
2023-03-31T22:01:59.299Z,94.48
2023-03-31T22:05:04.706Z,94.66
2023-03-31T22:08:07.732Z,94.80
2023-03-31T22:11:12.761Z,95.32
2023-03-31T22:14:15.752Z,95.01
2023-03-31T22:17:20.972Z,94.95
2023-03-31T22:20:24.008Z,95.00
2023-03-31T22:23:27.884Z,94.26
2023-03-31T22:26:31.788Z,94.14
2023-03-31T22:29:35.116Z,93.34
2023-03-31T22:32:37.861Z,93.08
2023-03-31T22:35:40.990Z,93.19
2023-03-31T22:38:43.708Z,93.42
2023-03-31T22:41:49.249Z,92.74
2023-03-31T22:44:52.058Z,92.20
2023-03-31T22:47:55.214Z,93.54
2023-03-31T22:50:58.015Z,92.77
2023-03-31T22:54:01.455Z,92.69
2023-03-31T22:57:04.317Z,93.09
2023-03-31T23:00:08.025Z,93.60
2023-03-31T23:03:10.864Z,94.36
2023-03-31T23:06:15.767Z,96.50
2023-03-31T23:09:18.644Z,96.77
2023-03-31T23:12:21.937Z,97.90
2023-03-31T23:15:24.585Z,98.25
2023-03-31T23:18:30.081Z,97.45
2023-03-31T23:21:33.162Z,95.87
2023-03-31T23:24:36.492Z,95.21
2023-03-31T23:27:39.172Z,95.75
2023-03-31T23:30:42.439Z,95.40
2023-03-31T23:33:45.132Z,95.25
2023-03-31T23:36:48.283Z,96.15
2023-03-31T23:39:50.985Z,95.53
2023-03-31T23:42:54.008Z,95.19
2023-03-31T23:45:57.178Z,95.07
2023-03-31T23:49:02.771Z,94.16
2023-03-31T23:52:05.717Z,93.78
2023-03-31T23:55:09.300Z,94.69
2023-03-31T23:58:12.099Z,93.93
